createdAt,value
2017-07-21T00:02:02.599Z,24.27
2017-07-21T00:04:31.715Z,21.90
2017-07-21T00:06:59.865Z,20.30
2017-07-21T00:09:28.035Z,20.90
2017-07-21T00:11:56.170Z,22.30
2017-07-21T00:14:24.461Z,22.57
2017-07-21T00:16:52.693Z,22.57
2017-07-21T00:19:20.865Z,19.70
2017-07-21T00:21:49.059Z,21.47
2017-07-21T00:24:17.938Z,23.13
2017-07-21T00:26:46.295Z,19.93
2017-07-21T00:29:15.425Z,19.57
2017-07-21T00:31:43.676Z,20.50
2017-07-21T00:34:11.830Z,17.40
2017-07-21T00:36:40.742Z,19.00
2017-07-21T00:39:09.661Z,17.73
2017-07-21T00:41:37.801Z,19.67
2017-07-21T00:44:06.718Z,17.90
2017-07-21T00:46:34.865Z,16.67
2017-07-21T00:49:03.087Z,18.33
2017-07-21T00:51:31.223Z,18.27
2017-07-21T00:53:59.438Z,19.23
2017-07-21T00:56:27.584Z,18.30
2017-07-21T00:58:56.479Z,21.97
2017-07-21T01:01:24.712Z,17.60
2017-07-21T01:03:52.849Z,19.30
2017-07-21T01:06:21.000Z,20.00
2017-07-21T01:08:50.172Z,20.07
2017-07-21T01:11:19.215Z,19.67
2017-07-21T01:13:47.369Z,18.80
2017-07-21T01:16:15.522Z,19.43
2017-07-21T01:18:44.100Z,18.83
2017-07-21T01:21:12.249Z,18.90
2017-07-21T01:23:40.434Z,19.07
2017-07-21T01:26:09.349Z,17.87
2017-07-21T01:28:37.540Z,19.33
2017-07-21T01:31:05.788Z,19.77
2017-07-21T01:33:34.463Z,18.73
2017-07-21T01:36:02.642Z,20.67
2017-07-21T01:38:30.810Z,20.83
2017-07-21T01:40:59.767Z,20.83
2017-07-21T01:43:27.972Z,19.37
2017-07-21T01:45:56.214Z,19.90
2017-07-21T01:48:24.841Z,20.20
2017-07-21T01:50:52.995Z,21.93
2017-07-21T01:53:21.173Z,21.03
2017-07-21T01:55:49.434Z,21.00
2017-07-21T01:58:17.603Z,20.67
2017-07-21T02:00:45.755Z,20.60
2017-07-21T02:03:13.918Z,20.77
2017-07-21T02:05:42.447Z,20.27
2017-07-21T02:08:10.589Z,22.00
2017-07-21T02:10:38.763Z,21.70
2017-07-21T02:13:06.965Z,19.80
2017-07-21T02:15:35.118Z,21.07
2017-07-21T02:18:03.848Z,20.53
2017-07-21T02:20:32.759Z,19.63
2017-07-21T02:23:00.892Z,20.30
2017-07-21T02:25:29.068Z,20.27
2017-07-21T02:27:57.251Z,19.00
2017-07-21T02:30:25.383Z,17.93
2017-07-21T02:32:53.551Z,16.23
2017-07-21T02:35:21.689Z,16.90
2017-07-21T02:37:49.872Z,16.63
2017-07-21T02:40:17.981Z,15.07
2017-07-21T02:42:46.164Z,16.77
2017-07-21T02:45:14.431Z,14.00
2017-07-21T02:47:42.593Z,18.93
2017-07-21T02:50:10.766Z,15.50
2017-07-21T02:52:38.892Z,15.63
2017-07-21T02:55:07.222Z,15.23
2017-07-21T02:57:35.399Z,14.37
2017-07-21T03:00:04.039Z,16.60
2017-07-21T03:02:32.191Z,17.17
2017-07-21T03:05:00.322Z,16.20
2017-07-21T03:07:28.545Z,18.27
2017-07-21T03:09:56.903Z,19.13
2017-07-21T03:12:25.051Z,22.10
2017-07-21T03:14:53.267Z,20.13
2017-07-21T03:17:21.398Z,20.47
2017-07-21T03:19:50.157Z,23.63
2017-07-21T03:22:18.315Z,22.97
2017-07-21T03:24:46.457Z,24.10
2017-07-21T03:27:14.615Z,24.10
2017-07-21T03:29:42.834Z,25.57
2017-07-21T03:32:11.001Z,27.70
2017-07-21T03:34:39.127Z,24.80
2017-07-21T03:37:07.285Z,26.20
2017-07-21T03:39:36.280Z,28.97
2017-07-21T03:42:04.431Z,27.77
2017-07-21T03:44:32.718Z,30.07
2017-07-21T03:47:00.862Z,30.83
2017-07-21T03:49:29.264Z,35.53
2017-07-21T03:51:57.555Z,32.27
2017-07-21T03:54:26.442Z,32.30
2017-07-21T03:56:54.630Z,32.90
2017-07-21T03:59:22.756Z,34.27
2017-07-21T04:01:50.892Z,34.37
2017-07-21T04:04:19.063Z,32.27
2017-07-21T04:06:47.978Z,32.97
2017-07-21T04:09:16.132Z,31.20
2017-07-21T04:11:44.256Z,32.67
2017-07-21T04:14:13.021Z,28.53
2017-07-21T04:16:42.039Z,28.33
2017-07-21T04:19:10.172Z,27.27
2017-07-21T04:21:38.463Z,27.43
2017-07-21T04:24:06.625Z,25.83
2017-07-21T04:26:34.803Z,24.83
2017-07-21T04:29:02.976Z,27.50
2017-07-21T04:31:31.132Z,24.80
2017-07-21T04:33:59.378Z,25.67
2017-07-21T04:36:28.281Z,25.13
2017-07-21T04:38:56.425Z,27.53
2017-07-21T04:41:24.579Z,26.63
2017-07-21T04:43:52.755Z,25.17
2017-07-21T04:46:20.921Z,27.50
2017-07-21T04:48:49.087Z,25.33
2017-07-21T04:51:18.163Z,24.17
2017-07-21T04:53:46.335Z,24.13
2017-07-21T04:56:14.493Z,26.87
2017-07-21T04:58:42.643Z,22.63
2017-07-21T05:01:11.731Z,24.77
2017-07-21T05:03:39.888Z,23.47
2017-07-21T05:06:08.081Z,22.43
2017-07-21T05:08:36.291Z,20.73
2017-07-21T05:11:04.570Z,20.60
2017-07-21T05:13:32.715Z,18.73
2017-07-21T05:16:00.861Z,18.70
2017-07-21T05:18:29.036Z,18.47
2017-07-21T05:20:57.178Z,19.80
2017-07-21T05:23:25.323Z,18.27
2017-07-21T05:25:53.571Z,18.90
2017-07-21T05:28:21.712Z,16.50
2017-07-21T05:30:50.020Z,18.30
2017-07-21T05:33:18.718Z,18.27
2017-07-21T05:35:46.877Z,18.13
2017-07-21T05:38:15.829Z,17.43
2017-07-21T05:40:44.469Z,19.00
2017-07-21T05:43:12.621Z,16.83
2017-07-21T05:45:40.762Z,17.13
2017-07-21T05:48:09.091Z,19.70
2017-07-21T05:50:37.225Z,19.23
2017-07-21T05:53:05.363Z,17.80
2017-07-21T05:55:33.533Z,19.13
2017-07-21T05:58:02.457Z,17.40
2017-07-21T06:00:30.669Z,20.50
2017-07-21T06:02:58.868Z,17.03
2017-07-21T06:05:27.743Z,18.50
2017-07-21T06:10:34.450Z,18.03
2017-07-21T06:13:02.637Z,18.47
2017-07-21T06:15:31.504Z,16.80
2017-07-21T06:17:59.624Z,16.17
2017-07-21T06:20:28.713Z,13.80
2017-07-21T06:22:56.885Z,14.73
2017-07-21T06:25:25.131Z,13.07
2017-07-21T06:27:54.151Z,13.70
2017-07-21T06:30:22.646Z,13.60
2017-07-21T06:32:50.819Z,13.27
2017-07-21T06:35:18.963Z,13.87
2017-07-21T06:37:47.146Z,13.70
2017-07-21T06:40:16.041Z,15.50
2017-07-21T06:42:44.352Z,13.30
2017-07-21T06:45:12.590Z,11.07
2017-07-21T06:47:40.722Z,13.47
2017-07-21T06:50:08.897Z,13.67
2017-07-21T06:52:37.731Z,12.17
2017-07-21T06:55:05.858Z,10.43
2017-07-21T06:57:34.052Z,14.67
2017-07-21T07:00:02.185Z,10.00
2017-07-21T07:02:30.406Z,8.57
2017-07-21T07:04:58.529Z,16.63
2017-07-21T07:07:26.648Z,8.43
2017-07-21T07:09:54.798Z,10.77
2017-07-21T07:12:23.004Z,8.17
2017-07-21T07:14:51.169Z,8.20
2017-07-21T07:17:19.291Z,7.63
2017-07-21T07:19:47.413Z,8.27
2017-07-21T07:22:16.145Z,10.83
2017-07-21T07:24:44.335Z,8.80
2017-07-21T07:27:12.822Z,5.80
2017-07-21T07:29:40.985Z,10.27
2017-07-21T07:32:09.157Z,7.97
2017-07-21T07:34:37.320Z,7.27
2017-07-21T07:37:05.821Z,7.60
2017-07-21T07:39:34.652Z,8.13
2017-07-21T07:42:03.150Z,7.23
2017-07-21T07:44:31.587Z,9.80
2017-07-21T07:46:59.726Z,5.10
2017-07-21T07:49:28.737Z,10.03
2017-07-21T07:51:57.515Z,6.50
2017-07-21T07:54:25.689Z,4.60
2017-07-21T07:56:54.585Z,6.43
2017-07-21T07:59:23.386Z,7.73
2017-07-21T08:01:51.621Z,6.93
2017-07-21T08:04:19.768Z,6.00
2017-07-21T08:06:48.658Z,10.27
2017-07-21T08:09:17.578Z,3.43
2017-07-21T08:11:45.724Z,5.43
2017-07-21T08:14:13.877Z,5.60
2017-07-21T08:16:41.999Z,8.90
2017-07-21T08:19:10.175Z,10.37
2017-07-21T08:21:38.314Z,13.20
2017-07-21T08:24:06.459Z,6.03
2017-07-21T08:26:34.602Z,4.90
2017-07-21T08:29:02.740Z,4.63
2017-07-21T08:31:30.908Z,8.47
2017-07-21T08:33:59.043Z,5.30
2017-07-21T08:36:27.384Z,6.30
2017-07-21T08:38:55.582Z,6.30
2017-07-21T08:41:23.763Z,6.70
2017-07-21T08:43:51.950Z,5.63
2017-07-21T08:46:20.083Z,8.10
2017-07-21T08:48:48.428Z,6.23
2017-07-21T08:51:17.377Z,3.80
2017-07-21T08:53:45.510Z,5.27
2017-07-21T08:56:13.922Z,6.57
2017-07-21T08:58:42.049Z,8.90
2017-07-21T09:01:11.848Z,3.83
2017-07-21T09:03:40.167Z,6.20
2017-07-21T09:06:08.296Z,4.33
2017-07-21T09:08:36.500Z,3.80
2017-07-21T09:11:05.350Z,7.10
2017-07-21T09:13:33.497Z,5.67
2017-07-21T09:16:02.208Z,6.40
2017-07-21T09:18:30.344Z,4.20
2017-07-21T09:20:58.490Z,8.80
2017-07-21T09:23:26.620Z,4.47
2017-07-21T09:25:55.648Z,6.73
2017-07-21T09:28:24.072Z,9.30
2017-07-21T09:30:52.251Z,5.80
2017-07-21T09:33:20.531Z,6.43
2017-07-21T09:35:49.430Z,4.07
2017-07-21T09:38:17.557Z,5.47
2017-07-21T09:40:45.699Z,6.80
2017-07-21T09:43:14.539Z,7.57
2017-07-21T09:45:42.747Z,8.43
2017-07-21T09:48:10.967Z,4.07
2017-07-21T09:50:39.128Z,5.80
2017-07-21T09:53:07.248Z,6.57
2017-07-21T09:55:35.405Z,7.10
2017-07-21T09:58:03.602Z,7.57
2017-07-21T10:00:31.774Z,3.70
2017-07-21T10:03:00.097Z,8.67
2017-07-21T10:05:28.226Z,7.50
2017-07-21T10:07:56.363Z,4.40
2017-07-21T10:10:24.553Z,5.40
2017-07-21T10:12:52.934Z,7.03
2017-07-21T10:15:21.080Z,3.40
2017-07-21T10:17:49.218Z,4.03
2017-07-21T10:20:17.398Z,7.67
2017-07-21T10:22:45.589Z,5.63
2017-07-21T10:25:13.802Z,5.90
2017-07-21T10:27:41.972Z,6.40
2017-07-21T10:30:10.876Z,5.60
2017-07-21T10:32:39.045Z,13.53
2017-07-21T10:35:07.242Z,14.60
2017-07-21T10:37:35.408Z,53.97
2017-07-21T10:40:04.416Z,9.00
2017-07-21T10:42:33.323Z,12.30
2017-07-21T10:45:01.835Z,31.20
2017-07-21T10:47:29.967Z,20.77
2017-07-21T10:49:58.106Z,11.67
2017-07-21T10:52:27.452Z,22.40
2017-07-21T10:54:55.607Z,10.13
2017-07-21T10:57:23.770Z,13.77
2017-07-21T10:59:51.906Z,13.40
2017-07-21T11:02:20.029Z,7.90
2017-07-21T11:04:49.012Z,6.47
2017-07-21T11:07:17.137Z,8.13
2017-07-21T11:09:45.331Z,10.90
2017-07-21T11:12:15.225Z,8.90
2017-07-21T11:14:44.195Z,28.30
2017-07-21T11:17:12.596Z,27.90
2017-07-21T11:19:41.141Z,39.87
2017-07-21T11:22:09.357Z,38.40
2017-07-21T11:24:38.276Z,61.37
2017-07-21T11:27:06.419Z,23.10
2017-07-21T11:29:35.310Z,14.03
2017-07-21T11:32:03.540Z,19.97
2017-07-21T11:34:32.396Z,11.27
2017-07-21T11:37:00.626Z,8.40
2017-07-21T11:39:28.783Z,7.70
2017-07-21T11:41:56.942Z,10.53
2017-07-21T11:44:25.273Z,7.57
2017-07-21T11:46:53.482Z,5.83
2017-07-21T11:49:21.637Z,8.57
2017-07-21T11:51:49.783Z,7.13
2017-07-21T11:54:18.028Z,6.50
2017-07-21T11:56:46.215Z,4.93
2017-07-21T11:59:14.427Z,6.83
2017-07-21T12:01:42.699Z,4.00
2017-07-21T12:04:11.970Z,4.87
2017-07-21T12:06:40.200Z,7.00
2017-07-21T12:09:09.107Z,5.10
2017-07-21T12:11:37.603Z,3.93
2017-07-21T12:14:05.771Z,5.83
2017-07-21T12:16:34.244Z,7.57
2017-07-21T12:19:02.977Z,7.73
2017-07-21T12:21:31.876Z,5.20
2017-07-21T12:24:00.081Z,4.40
2017-07-21T12:26:28.196Z,4.63
2017-07-21T12:28:56.447Z,7.43
2017-07-21T12:31:24.620Z,8.63
2017-07-21T12:33:52.828Z,17.53
2017-07-21T12:36:21.039Z,12.07
2017-07-21T12:38:49.931Z,3.50
2017-07-21T12:41:19.435Z,4.07
2017-07-21T12:43:47.626Z,6.27
2017-07-21T12:46:15.731Z,6.23
2017-07-21T12:48:44.777Z,4.00
2017-07-21T12:51:12.999Z,6.03
2017-07-21T12:53:41.180Z,6.90
2017-07-21T12:56:09.349Z,4.47
2017-07-21T12:58:38.214Z,4.40
2017-07-21T13:01:06.388Z,4.20
2017-07-21T13:03:34.520Z,6.60
2017-07-21T13:06:02.789Z,5.57
2017-07-21T13:08:31.322Z,7.50
2017-07-21T13:10:59.492Z,3.97
2017-07-21T13:13:27.643Z,6.93
2017-07-21T13:15:55.756Z,5.80
2017-07-21T13:18:24.748Z,5.13
2017-07-21T13:20:53.006Z,9.50
2017-07-21T13:23:21.160Z,5.97
2017-07-21T13:25:49.960Z,5.50
2017-07-21T13:28:20.145Z,3.57
2017-07-21T13:30:48.306Z,6.30
2017-07-21T13:33:16.450Z,6.10
2017-07-21T13:35:44.670Z,3.30
2017-07-21T13:38:12.885Z,6.03
2017-07-21T13:40:41.013Z,4.43
2017-07-21T13:43:09.185Z,8.60
2017-07-21T13:45:37.350Z,5.40
2017-07-21T13:48:05.558Z,8.40
2017-07-21T13:50:33.718Z,5.20
2017-07-21T13:53:01.869Z,6.10
2017-07-21T13:55:30.001Z,7.57
2017-07-21T13:57:58.345Z,3.90
2017-07-21T14:00:26.954Z,5.80
2017-07-21T14:02:55.133Z,6.13
2017-07-21T14:05:23.302Z,4.30
2017-07-21T14:07:52.678Z,7.30
2017-07-21T14:10:21.418Z,8.60
2017-07-21T14:12:49.574Z,4.83
2017-07-21T14:15:18.704Z,4.80
2017-07-21T14:17:47.652Z,4.47
2017-07-21T14:20:16.550Z,3.30
2017-07-21T14:22:46.841Z,6.87
2017-07-21T14:25:15.806Z,5.87
2017-07-21T14:27:44.051Z,3.60
2017-07-21T14:30:12.202Z,2.70
2017-07-21T14:32:40.318Z,4.90
2017-07-21T14:35:08.634Z,6.10
2017-07-21T14:37:37.390Z,5.83
2017-07-21T14:40:05.821Z,6.67
2017-07-21T14:42:34.050Z,3.43
2017-07-21T14:45:02.246Z,6.80
2017-07-21T14:47:30.451Z,3.20
2017-07-21T14:49:58.588Z,5.10
2017-07-21T14:52:26.768Z,5.53
2017-07-21T14:54:54.938Z,5.17
2017-07-21T14:57:23.079Z,5.23
2017-07-21T14:59:51.992Z,6.53
2017-07-21T15:02:20.148Z,6.87
2017-07-21T15:04:48.320Z,4.70
2017-07-21T15:07:16.459Z,6.07
2017-07-21T15:09:44.628Z,6.70
2017-07-21T15:12:12.788Z,3.93
2017-07-21T15:14:41.042Z,8.87
2017-07-21T15:17:09.819Z,4.67
2017-07-21T15:19:38.028Z,5.20
2017-07-21T15:22:06.228Z,4.10
2017-07-21T15:24:34.834Z,5.57
2017-07-21T15:27:02.969Z,4.10
2017-07-21T15:29:31.140Z,3.97
2017-07-21T15:31:59.982Z,6.83
2017-07-21T15:34:28.156Z,5.50
2017-07-21T15:36:56.274Z,6.60
2017-07-21T15:39:24.430Z,4.73
2017-07-21T15:41:52.588Z,7.77
2017-07-21T15:44:21.518Z,7.13
2017-07-21T15:46:49.874Z,6.97
2017-07-21T15:49:18.025Z,5.50
2017-07-21T15:51:46.201Z,4.10
2017-07-21T15:54:14.717Z,4.47
2017-07-21T15:56:43.072Z,5.13
2017-07-21T15:59:11.252Z,5.97
2017-07-21T16:01:39.546Z,6.03
2017-07-21T16:04:07.725Z,6.73
2017-07-21T16:06:35.879Z,5.60
2017-07-21T16:09:04.010Z,6.90
2017-07-21T16:11:33.022Z,4.77
2017-07-21T16:14:01.794Z,4.63
2017-07-21T16:16:31.584Z,4.47
2017-07-21T16:18:59.835Z,4.20
2017-07-21T16:21:27.966Z,8.00
2017-07-21T16:23:57.914Z,4.83
2017-07-21T16:26:26.154Z,4.53
2017-07-21T16:28:54.300Z,13.27
2017-07-21T16:31:22.471Z,6.13
2017-07-21T16:33:50.606Z,5.90
2017-07-21T16:36:18.782Z,4.47
2017-07-21T16:38:46.937Z,13.60
2017-07-21T16:41:15.058Z,50.33
2017-07-21T16:43:43.271Z,5.50
2017-07-21T16:46:11.434Z,4.00
2017-07-21T16:48:40.367Z,4.87
2017-07-21T16:51:08.498Z,2.73
2017-07-21T16:53:36.650Z,6.03
2017-07-21T16:56:04.837Z,4.50
2017-07-21T16:58:32.965Z,8.10
2017-07-21T17:01:01.235Z,3.40
2017-07-21T17:03:29.382Z,3.53
2017-07-21T17:05:57.537Z,6.00
2017-07-21T17:08:25.678Z,3.60
2017-07-21T17:10:53.808Z,5.67
2017-07-21T17:13:21.977Z,8.53
2017-07-21T17:15:50.103Z,4.40
2017-07-21T17:18:18.254Z,8.20
2017-07-21T17:20:46.410Z,6.30
2017-07-21T17:23:14.553Z,3.93
2017-07-21T17:25:43.478Z,4.00
2017-07-21T17:28:11.831Z,4.10
2017-07-21T17:30:39.961Z,5.63
2017-07-21T17:33:08.145Z,5.90
2017-07-21T17:35:36.355Z,4.40
2017-07-21T17:38:04.503Z,5.37
2017-07-21T17:40:32.607Z,4.83
2017-07-21T17:43:00.716Z,4.13
2017-07-21T17:45:28.988Z,4.87
2017-07-21T17:47:57.115Z,5.67
2017-07-21T17:50:25.290Z,3.53
2017-07-21T17:52:53.436Z,6.40
2017-07-21T17:55:21.562Z,5.50
2017-07-21T17:57:49.712Z,3.83
2017-07-21T18:00:17.869Z,4.83
2017-07-21T18:02:46.036Z,3.53
2017-07-21T18:05:14.619Z,4.50
2017-07-21T18:07:42.814Z,3.90
2017-07-21T18:10:11.024Z,4.40
2017-07-21T18:12:39.169Z,4.67
2017-07-21T18:15:07.504Z,5.47
2017-07-21T18:17:35.642Z,2.67
2017-07-21T18:20:03.853Z,4.33
2017-07-21T18:22:32.036Z,4.30
2017-07-21T18:25:00.192Z,4.10
2017-07-21T18:27:28.367Z,4.67
2017-07-21T18:29:56.493Z,9.63
2017-07-21T18:32:24.949Z,2.20
2017-07-21T18:34:53.150Z,4.43
2017-07-21T18:37:21.308Z,11.07
2017-07-21T18:39:49.497Z,6.93
2017-07-21T18:42:17.679Z,4.60
2017-07-21T18:44:45.817Z,3.20
2017-07-21T18:47:13.986Z,5.13
2017-07-21T18:49:42.119Z,2.87
2017-07-21T18:52:10.356Z,5.53
2017-07-21T18:54:38.525Z,4.90
2017-07-21T18:57:06.819Z,8.40
2017-07-21T18:59:35.730Z,3.47
2017-07-21T19:02:03.873Z,7.60
2017-07-21T19:04:32.038Z,5.50
2017-07-21T19:07:00.174Z,4.50
2017-07-21T19:09:28.398Z,3.33
2017-07-21T19:11:56.557Z,5.03
2017-07-21T19:14:24.674Z,5.73
2017-07-21T19:16:52.816Z,3.93
2017-07-21T19:19:21.765Z,3.97
2017-07-21T19:21:49.927Z,3.47
2017-07-21T19:24:18.050Z,5.67
2017-07-21T19:26:46.181Z,4.23
2017-07-21T19:29:14.313Z,2.93
2017-07-21T19:31:42.457Z,6.33
2017-07-21T19:34:11.551Z,3.80
2017-07-21T19:36:39.666Z,3.57
2017-07-21T19:39:07.799Z,3.70
2017-07-21T19:41:35.962Z,4.77
2017-07-21T19:44:04.080Z,5.23
2017-07-21T19:46:32.229Z,3.90
2017-07-21T19:49:00.368Z,4.70
2017-07-21T19:51:28.758Z,4.20
2017-07-21T19:53:56.899Z,4.20
2017-07-21T19:56:26.929Z,4.80
2017-07-21T19:58:55.064Z,7.00
2017-07-21T20:01:23.202Z,3.97
2017-07-21T20:03:51.398Z,5.43
2017-07-21T20:06:20.642Z,3.37
2017-07-21T20:08:48.783Z,3.27
2017-07-21T20:11:17.887Z,4.13
2017-07-21T20:13:46.274Z,2.63
2017-07-21T20:16:14.483Z,4.13
2017-07-21T20:18:43.564Z,6.17
2017-07-21T20:21:12.490Z,3.80
2017-07-21T20:23:40.706Z,3.70
2017-07-21T20:26:08.839Z,4.33
2017-07-21T20:28:37.127Z,7.00
2017-07-21T20:31:05.270Z,6.50
2017-07-21T20:33:33.505Z,4.20
2017-07-21T20:36:01.685Z,4.77
2017-07-21T20:38:29.839Z,5.23
2017-07-21T20:40:58.018Z,11.00
2017-07-21T20:43:26.176Z,3.90
2017-07-21T20:45:55.251Z,7.87
2017-07-21T20:48:23.408Z,5.63
2017-07-21T20:50:51.580Z,5.03
2017-07-21T20:53:19.745Z,5.90
2017-07-21T20:55:47.879Z,8.40
2017-07-21T20:58:16.061Z,5.20
2017-07-21T21:00:44.265Z,5.70
2017-07-21T21:03:13.222Z,5.20
2017-07-21T21:05:41.445Z,7.83
2017-07-21T21:08:09.583Z,7.13
2017-07-21T21:10:38.514Z,5.30
2017-07-21T21:13:07.314Z,5.20
2017-07-21T21:15:35.509Z,6.90
2017-07-21T21:18:03.681Z,7.13
2017-07-21T21:20:31.817Z,9.30
2017-07-21T21:23:00.017Z,9.53
2017-07-21T21:25:28.151Z,10.23
2017-07-21T21:27:57.058Z,10.63
2017-07-21T21:30:25.233Z,8.40
2017-07-21T21:32:53.374Z,12.17
2017-07-21T21:35:22.329Z,9.30
2017-07-21T21:37:50.465Z,12.77
2017-07-21T21:40:19.766Z,7.23
2017-07-21T21:42:47.959Z,9.40
2017-07-21T21:45:16.990Z,9.10
2017-07-21T21:47:45.229Z,10.07
2017-07-21T21:50:13.380Z,8.60
2017-07-21T21:52:41.504Z,6.03
2017-07-21T21:55:09.671Z,9.13
2017-07-21T21:57:37.883Z,8.00
2017-07-21T22:00:06.105Z,8.43
2017-07-21T22:02:35.004Z,8.70
2017-07-21T22:05:03.129Z,6.80
2017-07-21T22:07:31.312Z,7.40
2017-07-21T22:09:59.554Z,5.97
2017-07-21T22:12:27.706Z,8.57
2017-07-21T22:14:55.816Z,7.33
2017-07-21T22:17:24.305Z,6.40
2017-07-21T22:19:53.354Z,18.47
2017-07-21T22:22:21.487Z,42.70
2017-07-21T22:24:49.847Z,12.13
2017-07-21T22:27:17.981Z,11.57
2017-07-21T22:29:46.248Z,7.00
2017-07-21T22:32:14.382Z,7.53
2017-07-21T22:34:43.426Z,7.70
2017-07-21T22:37:11.567Z,9.07
2017-07-21T22:39:39.695Z,7.77
2017-07-21T22:42:08.655Z,7.80
2017-07-21T22:44:36.801Z,8.40
2017-07-21T22:47:05.017Z,6.63
2017-07-21T22:49:33.167Z,10.50
2017-07-21T22:52:02.077Z,5.37
2017-07-21T22:54:30.246Z,5.53
2017-07-21T22:56:58.368Z,6.63
2017-07-21T22:59:26.475Z,5.20
2017-07-21T23:01:54.602Z,8.17
2017-07-21T23:04:22.740Z,5.80
2017-07-21T23:06:50.907Z,6.47
2017-07-21T23:09:19.035Z,8.13
2017-07-21T23:11:47.157Z,5.73
2017-07-21T23:14:15.336Z,5.13
2017-07-21T23:16:44.248Z,6.90
2017-07-21T23:19:12.418Z,5.60
2017-07-21T23:21:40.558Z,5.10
2017-07-21T23:24:09.966Z,8.03
2017-07-21T23:26:38.155Z,5.47
2017-07-21T23:29:06.399Z,6.17
2017-07-21T23:31:34.732Z,6.93
2017-07-21T23:34:02.918Z,5.97
2017-07-21T23:36:32.234Z,5.97
2017-07-21T23:39:00.405Z,6.50
2017-07-21T23:41:28.766Z,5.77
2017-07-21T23:43:56.968Z,6.97
2017-07-21T23:46:25.114Z,4.63
2017-07-21T23:48:53.321Z,6.47
2017-07-21T23:51:21.456Z,7.87
2017-07-21T23:53:49.621Z,9.97
2017-07-21T23:56:17.776Z,8.90
2017-07-21T23:58:46.691Z,12.33
